createdAt,value
2022-10-04T02:44:32.736Z,7.50
2022-10-04T03:14:39.180Z,7.32
2022-10-04T03:44:44.583Z,7.24
2022-10-04T04:14:51.431Z,6.95
2022-10-04T04:44:57.810Z,6.79
2022-10-04T05:15:01.939Z,7.08
2022-10-04T05:45:15.277Z,6.94
2022-10-04T06:15:42.758Z,7.16
2022-10-04T06:45:58.357Z,7.63
2022-10-04T07:16:06.185Z,8.69
2022-10-04T07:46:16.268Z,10.19
2022-10-04T08:16:34.199Z,11.73
2022-10-04T08:47:22.449Z,12.51
2022-10-04T09:17:33.555Z,13.62
2022-10-04T09:47:45.641Z,20.11
2022-10-04T10:17:54.555Z,24.29
2022-10-04T10:48:01.905Z,29.74
2022-10-04T11:18:29.705Z,29.66
2022-10-04T11:48:43.808Z,31.46
2022-10-04T12:19:15.490Z,29.29
2022-10-04T12:49:26.920Z,29.08
2022-10-04T13:19:35.187Z,26.44
2022-10-04T13:49:52.541Z,25.84
2022-10-04T14:20:24.247Z,26.87
2022-10-04T14:50:31.507Z,26.09
2022-10-04T15:20:49.614Z,25.69
2022-10-04T15:51:01.604Z,23.85
2022-10-04T16:21:15.980Z,17.47
2022-10-04T16:51:50.404Z,16.32
2022-10-04T17:22:06.882Z,15.11
2022-10-04T17:52:39.422Z,14.43
2022-10-04T18:22:49.351Z,13.96
2022-10-04T18:53:01.884Z,13.76
2022-10-04T19:23:12.302Z,13.44
2022-10-04T19:53:19.371Z,12.88
2022-10-04T20:23:49.905Z,12.51
2022-10-04T20:53:54.721Z,12.06
2022-10-04T21:23:58.978Z,12.21
2022-10-04T21:54:03.258Z,11.90
2022-10-04T22:24:11.977Z,11.40
2022-10-04T22:54:17.845Z,11.13
2022-10-04T23:24:23.493Z,11.59
